Beaver Crossing, Nebraska
Current Conditions -  °F | °C
As of 3:15 PM on Sunday 23 Nov 2014 (Local Time) from KJYR Reporting Station
Clear Clear  
Wind Chill: 36°   Ceiling: Unl
Heat Index: 43°   Visibility: 10mi
Dew Point: 34°   Wind: 14mph
Humidity: 70%   Direction: 350°N
Pressure: 29.55"   Gusts: 18mph
Location:  40.78°N, 97.28°W
Report Text: KJYR 232115Z AUTO 35012G16KT 10SM CLR 06/01 A2955 RMK AO2
Loading
Personal Weather Stations






























Interactive Weather Map New forecast layout! Learn more

10-Day Weather Forecast

Advertisements
Track Severe Weather on mobile